Time;durP1;ratioP1;P1;durP2;ratioP2;P2;SDS_P1;SDS_P2;PMS_P1;PMS_P2;Temp;Humidity;BMP_temperature;BMP_pressure;BME280_temperature;BME280_humidity;BME280_pressure;Samples;Min_cycle;Max_cycle;Signal;HPM_P1;HPM_P2
2021/11/11 00:02:24;;;;;;;111.60;43.87;;;;;;;;;;4917249;29;20602;-85
2021/11/11 00:05:30;;;;;;;107.43;45.63;;;;;;;;;;4917041;29;20696;-86
2021/11/11 00:08:34;;;;;;;82.43;39.17;;;;;;;;;;4928063;29;20551;-86
2021/11/11 00:11:39;;;;;;;106.13;43.37;;;;;;;;;;4909253;29;20667;-85
2021/11/11 00:14:43;;;;;;;182.80;58.33;;;;;;;;;;4939026;29;20614;-85
2021/11/11 00:17:48;;;;;;;160.93;58.17;;;;;;;;;;4917367;29;20962;-86
2021/11/11 00:20:52;;;;;;;274.87;82.07;;;;;;;;;;4916074;29;20591;-85
2021/11/11 00:23:56;;;;;;;209.97;69.57;;;;;;;;;;4898055;29;20600;-85
2021/11/11 00:27:00;;;;;;;179.43;59.07;;;;;;;;;;4906598;29;20662;-86
2021/11/11 00:30:07;;;;;;;168.23;57.97;;;;;;;;;;4927593;29;20623;-86
2021/11/11 00:33:11;;;;;;;229.53;71.67;;;;;;;;;;4898251;29;20620;-85
2021/11/11 00:36:15;;;;;;;206.70;66.17;;;;;;;;;;4930315;29;20627;-86
2021/11/11 00:39:19;;;;;;;206.23;65.80;;;;;;;;;;4908044;29;20607;-85
2021/11/11 00:42:23;;;;;;;237.07;70.97;;;;;;;;;;4905012;29;20607;-86
2021/11/11 00:45:28;;;;;;;189.00;63.23;;;;;;;;;;4916146;29;21002;-86
2021/11/11 00:48:32;;;;;;;248.17;78.60;;;;;;;;;;4905638;29;21005;-86
2021/11/11 00:51:38;;;;;;;213.10;67.60;;;;;;;;;;4905418;29;20647;-85
2021/11/11 00:54:43;;;;;;;197.27;65.50;;;;;;;;;;4916651;29;20615;-85
2021/11/11 00:58:01;;;;;;;162.47;63.00;;;;;;;;;;4919314;29;20548;-85
2021/11/11 01:01:05;;;;;;;220.67;68.70;;;;;;;;;;4910788;29;20553;-87
2021/11/11 01:04:09;;;;;;;148.80;53.67;;;;;;;;;;4901137;29;20568;-86
2021/11/11 01:07:13;;;;;;;186.37;57.60;;;;;;;;;;4900754;29;21201;-86
2021/11/11 01:10:19;;;;;;;167.60;55.67;;;;;;;;;;4924800;29;20611;-86
2021/11/11 01:13:23;;;;;;;142.37;50.97;;;;;;;;;;4911256;29;20964;-86
2021/11/11 01:16:27;;;;;;;152.50;57.50;;;;;;;;;;4908471;29;20736;-86
2021/11/11 01:19:32;;;;;;;144.80;47.23;;;;;;;;;;4931673;29;20568;-87
2021/11/11 01:22:37;;;;;;;104.70;42.53;;;;;;;;;;4927380;29;20544;-86
2021/11/11 01:25:42;;;;;;;135.30;47.30;;;;;;;;;;4897404;29;20972;-86
2021/11/11 01:28:46;;;;;;;88.57;36.23;;;;;;;;;;4907979;29;21114;-87
2021/11/11 01:31:54;;;;;;;90.77;35.73;;;;;;;;;;4886686;29;20601;-87
2021/11/11 01:34:59;;;;;;;116.27;33.30;;;;;;;;;;4886584;29;21102;-86
2021/11/11 01:38:04;;;;;;;49.90;24.17;;;;;;;;;;4890761;29;20603;-86
2021/11/11 01:41:10;;;;;;;113.60;38.53;;;;;;;;;;4904982;29;20564;-88
2021/11/11 01:44:16;;;;;;;121.30;40.07;;;;;;;;;;4929139;29;20608;-87
2021/11/11 01:47:22;;;;;;;104.77;39.10;;;;;;;;;;4896730;29;20647;-86
2021/11/11 01:50:29;;;;;;;171.80;50.67;;;;;;;;;;4896734;29;20564;-87
2021/11/11 01:53:34;;;;;;;133.70;45.47;;;;;;;;;;4921613;29;20642;-86
2021/11/11 01:56:39;;;;;;;136.40;47.83;;;;;;;;;;4914840;29;20674;-86
2021/11/11 01:59:55;;;;;;;121.73;42.13;;;;;;;;;;4925905;29;20599;-86
2021/11/11 02:03:04;;;;;;;95.37;38.40;;;;;;;;;;4904028;29;20631;-86
2021/11/11 02:06:28;;;;;;;181.00;55.07;;;;;;;;;;4928385;29;20651;-86
2021/11/11 02:09:45;;;;;;;127.60;48.87;;;;;;;;;;4906275;29;20964;-86
2021/11/11 02:13:05;;;;;;;118.57;39.80;;;;;;;;;;4917757;29;20648;-87
2021/11/11 02:16:10;;;;;;;106.30;39.07;;;;;;;;;;4905673;29;20663;-86
2021/11/11 02:19:15;;;;;;;107.07;35.07;;;;;;;;;;4917764;29;20566;-87
2021/11/11 02:22:22;;;;;;;84.50;32.33;;;;;;;;;;4948263;29;20603;-88
2021/11/11 02:25:31;;;;;;;105.10;35.73;;;;;;;;;;4929051;29;20628;-87
2021/11/11 02:28:37;;;;;;;49.40;24.53;;;;;;;;;;4917037;29;20599;-87
2021/11/11 02:31:41;;;;;;;32.43;18.70;;;;;;;;;;4928986;29;20616;-87
2021/11/11 02:34:46;;;;;;;51.67;20.50;;;;;;;;;;4911619;29;20596;-88
2021/11/11 02:37:52;;;;;;;46.30;17.57;;;;;;;;;;4928760;29;20600;-87
2021/11/11 02:41:09;;;;;;;30.80;16.33;;;;;;;;;;4918942;29;20553;-87
2021/11/11 02:44:14;;;;;;;27.10;17.30;;;;;;;;;;4928270;29;20595;-87
2021/11/11 02:47:18;;;;;;;61.83;19.93;;;;;;;;;;4917822;29;20631;-87
2021/11/11 02:50:29;;;;;;;48.23;18.27;;;;;;;;;;4929075;29;20605;-87
2021/11/11 02:53:33;;;;;;;32.63;15.70;;;;;;;;;;4920571;29;20632;-87
2021/11/11 02:56:37;;;;;;;38.70;18.97;;;;;;;;;;4909897;29;20651;-87
2021/11/11 02:59:43;;;;;;;73.40;22.87;;;;;;;;;;4907906;29;20628;-87
2021/11/11 03:02:49;;;;;;;74.67;28.87;;;;;;;;;;4918947;29;20604;-87
2021/11/11 03:06:00;;;;;;;62.83;27.70;;;;;;;;;;4906845;29;20655;-87
2021/11/11 03:09:05;;;;;;;70.23;29.43;;;;;;;;;;4928525;29;20588;-87
2021/11/11 03:12:10;;;;;;;55.17;26.30;;;;;;;;;;4917718;29;20597;-87
2021/11/11 03:15:17;;;;;;;52.37;25.77;;;;;;;;;;4907203;29;20924;-87
2021/11/11 03:18:21;;;;;;;44.67;23.90;;;;;;;;;;4918452;29;20596;-87
2021/11/11 03:21:26;;;;;;;52.07;23.47;;;;;;;;;;4917777;29;20992;-87
2021/11/11 03:24:32;;;;;;;60.27;26.03;;;;;;;;;;4925254;29;20577;-87
2021/11/11 03:27:38;;;;;;;71.23;26.63;;;;;;;;;;4914779;29;20609;-87
2021/11/11 03:30:43;;;;;;;60.73;23.47;;;;;;;;;;4903533;29;20963;-87
2021/11/11 03:33:47;;;;;;;49.20;19.83;;;;;;;;;;4894809;29;21009;-87
2021/11/11 03:36:52;;;;;;;26.60;15.37;;;;;;;;;;4910573;29;20647;-87
2021/11/11 03:39:56;;;;;;;45.80;16.63;;;;;;;;;;4903690;29;21095;-88
2021/11/11 03:43:02;;;;;;;24.70;14.07;;;;;;;;;;4916514;29;21147;-87
2021/11/11 03:46:14;;;;;;;25.23;15.30;;;;;;;;;;4901256;29;20659;-87
2021/11/11 03:49:25;;;;;;;22.83;14.73;;;;;;;;;;4914902;29;20561;-87
2021/11/11 03:52:29;;;;;;;20.37;13.90;;;;;;;;;;4914000;29;20608;-88
2021/11/11 03:55:33;;;;;;;18.63;13.53;;;;;;;;;;4948336;23;20683;-83
2021/11/11 03:58:37;;;;;;;24.47;14.93;;;;;;;;;;4942690;29;20598;-83
2021/11/11 04:01:44;;;;;;;18.97;13.87;;;;;;;;;;4954250;29;20596;-83
2021/11/11 04:04:49;;;;;;;17.10;13.23;;;;;;;;;;4933730;29;20587;-83
2021/11/11 04:07:54;;;;;;;18.37;13.27;;;;;;;;;;4913793;29;20549;-83
2021/11/11 04:10:58;;;;;;;17.27;13.40;;;;;;;;;;4902925;29;20592;-83
2021/11/11 04:14:04;;;;;;;16.73;12.77;;;;;;;;;;4902394;29;20981;-83
2021/11/11 04:17:09;;;;;;;44.77;17.30;;;;;;;;;;4913403;29;20619;-83
2021/11/11 04:20:13;;;;;;;36.73;16.50;;;;;;;;;;4902594;29;20632;-83
2021/11/11 04:23:22;;;;;;;39.00;17.03;;;;;;;;;;4924020;29;20592;-83
2021/11/11 04:26:31;;;;;;;54.37;18.17;;;;;;;;;;4912806;29;20648;-83
2021/11/11 04:29:41;;;;;;;19.73;13.97;;;;;;;;;;4913451;29;20608;-83
2021/11/11 04:32:46;;;;;;;25.63;13.33;;;;;;;;;;4913115;29;20651;-83
2021/11/11 04:35:57;;;;;;;44.33;15.77;;;;;;;;;;4905827;29;21003;-83
2021/11/11 04:42:49;;;;;;;18.60;12.67;;;;;;;;;;4916450;29;20588;-83
2021/11/11 04:49:42;;;;;;;14.80;11.23;;;;;;;;;;4916484;29;20544;-83
2021/11/11 04:59:34;;;;;;;21.93;12.07;;;;;;;;;;4915858;29;21020;-83
2021/11/11 05:05:59;;;;;;;25.63;12.73;;;;;;;;;;4909241;29;20624;-83
2021/11/11 05:09:03;;;;;;;25.43;12.67;;;;;;;;;;4908279;29;20592;-83
2021/11/11 05:12:12;;;;;;;23.83;11.83;;;;;;;;;;4918406;29;21177;-83
2021/11/11 05:15:18;;;;;;;26.07;11.60;;;;;;;;;;4918832;29;20584;-83
2021/11/11 05:18:23;;;;;;;19.90;11.77;;;;;;;;;;4907059;29;20604;-83
2021/11/11 05:21:28;;;;;;;17.80;11.40;;;;;;;;;;4908071;29;20964;-83
2021/11/11 05:24:32;;;;;;;50.93;17.40;;;;;;;;;;4905366;29;20589;-84
2021/11/11 05:27:38;;;;;;;56.87;19.83;;;;;;;;;;4926088;29;20645;-84
2021/11/11 05:30:43;;;;;;;47.27;21.13;;;;;;;;;;4915505;29;20608;-84
2021/11/11 05:33:47;;;;;;;71.37;27.40;;;;;;;;;;4915634;29;20643;-83
2021/11/11 05:36:51;;;;;;;80.70;28.50;;;;;;;;;;4916547;29;20635;-83
2021/11/11 05:39:56;;;;;;;53.10;20.33;;;;;;;;;;4906073;29;20600;-83
2021/11/11 05:43:01;;;;;;;44.37;19.13;;;;;;;;;;4905249;29;20932;-83
2021/11/11 05:46:05;;;;;;;37.70;18.87;;;;;;;;;;4915670;29;20635;-83
2021/11/11 05:49:12;;;;;;;32.00;16.60;;;;;;;;;;4916391;29;20560;-83
2021/11/11 05:52:18;;;;;;;33.57;14.43;;;;;;;;;;4934861;29;20604;-83
2021/11/11 05:55:27;;;;;;;24.93;12.40;;;;;;;;;;4916208;29;20553;-83
2021/11/11 05:58:32;;;;;;;17.17;11.17;;;;;;;;;;4919523;29;20544;-83
2021/11/11 06:01:37;;;;;;;15.00;10.33;;;;;;;;;;4915414;29;20592;-83
2021/11/11 06:04:44;;;;;;;11.73;9.33;;;;;;;;;;4917398;29;21174;-83
2021/11/11 06:07:48;;;;;;;66.70;26.70;;;;;;;;;;4926200;29;20548;-83
2021/11/11 06:10:53;;;;;;;29.10;15.43;;;;;;;;;;4914831;29;20599;-83
2021/11/11 06:13:58;;;;;;;26.93;11.47;;;;;;;;;;4901940;29;20985;-83
2021/11/11 06:17:06;;;;;;;23.60;12.33;;;;;;;;;;4903928;29;20651;-83
2021/11/11 06:20:16;;;;;;;18.23;11.03;;;;;;;;;;4914728;29;20596;-83
2021/11/11 06:23:21;;;;;;;22.43;10.90;;;;;;;;;;4914681;29;20580;-83
2021/11/11 06:26:25;;;;;;;16.50;10.83;;;;;;;;;;4915988;29;20639;-83
2021/11/11 06:29:33;;;;;;;22.87;10.13;;;;;;;;;;4915136;29;21019;-82
2021/11/11 06:32:39;;;;;;;23.07;9.93;;;;;;;;;;4903114;29;20604;-83
2021/11/11 06:35:43;;;;;;;20.00;10.23;;;;;;;;;;4925124;29;20640;-83
2021/11/11 06:38:48;;;;;;;13.87;9.50;;;;;;;;;;4913999;29;20624;-82
2021/11/11 06:41:52;;;;;;;29.93;11.43;;;;;;;;;;4903649;29;20600;-82
2021/11/11 06:44:56;;;;;;;30.07;11.00;;;;;;;;;;4912699;29;20616;-82
2021/11/11 06:48:00;;;;;;;18.40;11.30;;;;;;;;;;4905494;29;20619;-83
2021/11/11 06:51:05;;;;;;;20.57;13.17;;;;;;;;;;4914349;29;20631;-84
2021/11/11 06:54:10;;;;;;;17.23;12.57;;;;;;;;;;4914063;29;20668;-83
2021/11/11 06:57:14;;;;;;;25.70;12.40;;;;;;;;;;4904884;29;20672;-84
2021/11/11 07:00:23;;;;;;;34.87;12.57;;;;;;;;;;4914818;29;20600;-84
2021/11/11 07:03:28;;;;;;;17.47;11.43;;;;;;;;;;4903036;29;20595;-84
2021/11/11 07:06:32;;;;;;;15.47;10.30;;;;;;;;;;4902216;29;20663;-84
2021/11/11 07:09:36;;;;;;;20.40;11.30;;;;;;;;;;4914040;29;20591;-84
2021/11/11 07:12:40;;;;;;;17.70;11.97;;;;;;;;;;4899735;29;20592;-83
2021/11/11 07:15:45;;;;;;;11.53;9.37;;;;;;;;;;4896039;29;20624;-84
2021/11/11 07:18:49;;;;;;;13.60;10.67;;;;;;;;;;4921667;29;20592;-84
2021/11/11 07:21:54;;;;;;;49.20;10.70;;;;;;;;;;4885003;29;20545;-84
2021/11/11 07:24:58;;;;;;;14.87;11.00;;;;;;;;;;4884426;29;21170;-83
2021/11/11 07:28:02;;;;;;;13.43;10.43;;;;;;;;;;4894815;29;20612;-83
2021/11/11 07:31:06;;;;;;;19.27;10.17;;;;;;;;;;4895327;29;20556;-83
2021/11/11 07:34:10;;;;;;;30.07;9.73;;;;;;;;;;4895160;29;20612;-83
2021/11/11 07:37:15;;;;;;;30.27;9.87;;;;;;;;;;4905635;29;21218;-84
2021/11/11 07:40:21;;;;;;;23.13;10.17;;;;;;;;;;4905816;29;20561;-84
2021/11/11 07:43:25;;;;;;;23.90;9.63;;;;;;;;;;4905736;29;20592;-84
2021/11/11 07:46:33;;;;;;;36.47;8.60;;;;;;;;;;4895241;29;20984;-84
2021/11/11 07:49:37;;;;;;;11.87;9.20;;;;;;;;;;4917695;29;20553;-84
2021/11/11 07:52:41;;;;;;;20.87;10.10;;;;;;;;;;4905230;29;20542;-85
2021/11/11 07:55:46;;;;;;;43.37;21.73;;;;;;;;;;4894368;29;20637;-85
2021/11/11 07:58:50;;;;;;;74.57;11.80;;;;;;;;;;4894595;29;20541;-85
2021/11/11 08:01:54;;;;;;;75.73;13.60;;;;;;;;;;4905444;29;20544;-85
2021/11/11 08:04:58;;;;;;;49.53;19.00;;;;;;;;;;4894781;29;20554;-85
2021/11/11 08:08:03;;;;;;;34.23;18.77;;;;;;;;;;4905673;29;21095;-84
2021/11/11 08:11:07;;;;;;;40.10;18.63;;;;;;;;;;4898257;29;20557;-84
2021/11/11 08:14:11;;;;;;;51.40;20.70;;;;;;;;;;4944890;29;20632;-84
2021/11/11 08:17:17;;;;;;;63.63;22.77;;;;;;;;;;4925964;29;20639;-84
2021/11/11 08:20:29;;;;;;;41.40;17.70;;;;;;;;;;4914010;29;20591;-84
2021/11/11 08:23:34;;;;;;;67.27;21.10;;;;;;;;;;4917269;29;20540;-84
2021/11/11 08:26:39;;;;;;;36.27;15.20;;;;;;;;;;4916736;29;21228;-84
2021/11/11 08:29:43;;;;;;;24.33;13.03;;;;;;;;;;4928043;29;20540;-84
2021/11/11 08:32:51;;;;;;;20.00;9.83;;;;;;;;;;4927992;29;20550;-84
2021/11/11 08:35:55;;;;;;;20.50;9.80;;;;;;;;;;4917314;29;20631;-83
2021/11/11 08:39:00;;;;;;;14.97;9.13;;;;;;;;;;4939756;29;21090;-84
2021/11/11 08:42:06;;;;;;;19.53;9.17;;;;;;;;;;4906050;29;20611;-84
2021/11/11 08:45:10;;;;;;;29.60;9.47;;;;;;;;;;4916736;29;20944;-84
2021/11/11 08:48:17;;;;;;;17.47;9.30;;;;;;;;;;4907318;29;20620;-84
2021/11/11 08:51:21;;;;;;;23.50;8.67;;;;;;;;;;4908777;29;20541;-84
2021/11/11 08:54:25;;;;;;;30.47;9.87;;;;;;;;;;4908531;29;20949;-84
2021/11/11 08:57:29;;;;;;;21.43;14.50;;;;;;;;;;4897198;29;20644;-84
2021/11/11 09:00:39;;;;;;;15.90;10.27;;;;;;;;;;4919572;29;20604;-84
2021/11/11 09:03:43;;;;;;;26.00;13.20;;;;;;;;;;4912248;29;20583;-84
2021/11/11 09:06:49;;;;;;;19.80;12.37;;;;;;;;;;4901943;29;20644;-84
2021/11/11 09:09:53;;;;;;;41.73;17.87;;;;;;;;;;4913389;29;20572;-84
2021/11/11 09:12:58;;;;;;;30.20;15.73;;;;;;;;;;4916270;29;20184;-84
2021/11/11 09:16:02;;;;;;;45.53;15.33;;;;;;;;;;4915869;29;20220;-84
2021/11/11 09:19:09;;;;;;;24.23;13.93;;;;;;;;;;4926555;29;20196;-84
2021/11/11 09:22:13;;;;;;;88.97;23.97;;;;;;;;;;4914886;29;20203;-84
2021/11/11 09:25:17;;;;;;;31.67;12.10;;;;;;;;;;4904845;29;20192;-85
2021/11/11 09:28:21;;;;;;;71.23;16.27;;;;;;;;;;4914738;29;20196;-84
2021/11/11 09:31:26;;;;;;;37.03;12.37;;;;;;;;;;4904836;29;20192;-84
2021/11/11 09:34:30;;;;;;;18.90;12.93;;;;;;;;;;4897022;29;20692;-84
2021/11/11 09:37:36;;;;;;;45.37;17.80;;;;;;;;;;4907750;29;20227;-84
2021/11/11 09:40:39;;;;;;;41.87;22.80;;;;;;;;;;4905051;29;20192;-84
2021/11/11 09:43:44;;;;;;;34.17;22.90;;;;;;;;;;4927429;29;20228;-85
2021/11/11 09:46:48;;;;;;;62.10;20.57;;;;;;;;;;4885921;29;20217;-84
2021/11/11 09:49:52;;;;;;;54.10;24.77;;;;;;;;;;4896508;29;20177;-84
2021/11/11 09:52:59;;;;;;;43.20;24.00;;;;;;;;;;4905491;29;20659;-84
2021/11/11 09:59:28;;;;;;;13.30;10.33;;;;;;;;;;5007658;23;20234;-85
2021/11/11 10:02:32;;;;;;;14.53;10.77;;;;;;;;;;4944652;29;20555;-85
2021/11/11 10:05:36;;;;;;;12.53;10.50;;;;;;;;;;4956164;28;20187;-85
2021/11/11 10:08:46;;;;;;;26.50;17.93;;;;;;;;;;4940650;29;20222;-83
2021/11/11 10:11:54;;;;;;;37.87;20.00;;;;;;;;;;4947550;29;20204;-85
2021/11/11 10:15:11;;;;;;;87.07;20.07;;;;;;;;;;4926320;29;20228;-85
2021/11/11 10:18:36;;;;;;;28.47;19.83;;;;;;;;;;4940735;29;20219;-85
2021/11/11 10:21:53;;;;;;;31.87;17.17;;;;;;;;;;4928366;29;20193;-85
2021/11/11 10:25:03;;;;;;;52.77;19.50;;;;;;;;;;4916999;29;20180;-86
2021/11/11 10:28:07;;;;;;;22.03;15.17;;;;;;;;;;4925192;29;20224;-86
2021/11/11 10:31:14;;;;;;;16.90;13.43;;;;;;;;;;4922834;28;20207;-86
2021/11/11 10:34:19;;;;;;;18.67;12.50;;;;;;;;;;4943656;29;20223;-86
2021/11/11 10:37:27;;;;;;;16.73;11.93;;;;;;;;;;4927479;29;20187;-86
2021/11/11 10:40:34;;;;;;;18.03;11.17;;;;;;;;;;4932716;29;20191;-86
2021/11/11 10:43:39;;;;;;;14.33;10.70;;;;;;;;;;4914492;29;20192;-86
2021/11/11 10:46:51;;;;;;;34.73;10.87;;;;;;;;;;4928582;29;20187;-85
2021/11/11 10:49:56;;;;;;;39.33;11.47;;;;;;;;;;4933109;29;20540;-86
2021/11/11 10:53:05;;;;;;;18.53;10.73;;;;;;;;;;4919051;29;20654;-86
2021/11/11 10:56:09;;;;;;;32.80;11.97;;;;;;;;;;4944038;29;20553;-86
2021/11/11 10:59:17;;;;;;;21.20;11.77;;;;;;;;;;4932691;29;20222;-86
2021/11/11 11:02:21;;;;;;;96.23;16.10;;;;;;;;;;4933033;29;20564;-86
2021/11/11 11:05:32;;;;;;;106.60;12.90;;;;;;;;;;4936348;29;20188;-86
2021/11/11 11:08:45;;;;;;;27.40;12.47;;;;;;;;;;4936666;29;20238;-85
2021/11/11 11:11:49;;;;;;;17.40;10.87;;;;;;;;;;4945249;29;20184;-85
2021/11/11 11:14:54;;;;;;;57.70;13.43;;;;;;;;;;4956395;29;20215;-86
2021/11/11 11:17:57;;;;;;;39.47;13.53;;;;;;;;;;4922569;29;20232;-85
2021/11/11 11:21:07;;;;;;;37.33;13.93;;;;;;;;;;4904444;29;20184;-86
2021/11/11 11:24:18;;;;;;;24.40;12.57;;;;;;;;;;4913772;29;20188;-85
2021/11/11 11:27:32;;;;;;;21.77;12.63;;;;;;;;;;4925573;29;20188;-85
2021/11/11 11:30:42;;;;;;;20.10;11.90;;;;;;;;;;4920608;29;20196;-86
2021/11/11 11:33:46;;;;;;;70.90;14.67;;;;;;;;;;4954315;29;20207;-85
2021/11/11 11:36:57;;;;;;;25.27;11.97;;;;;;;;;;4932817;29;20180;-85
2021/11/11 11:40:11;;;;;;;19.90;13.23;;;;;;;;;;4930825;29;20191;-85
2021/11/11 11:43:30;;;;;;;21.77;15.57;;;;;;;;;;4932402;28;20199;-86
2021/11/11 11:46:34;;;;;;;44.40;15.53;;;;;;;;;;4928405;29;20188;-85
2021/11/11 11:49:42;;;;;;;22.03;14.40;;;;;;;;;;4928516;29;20740;-86
2021/11/11 11:52:52;;;;;;;18.13;14.27;;;;;;;;;;4929576;29;20192;-86
2021/11/11 11:56:04;;;;;;;22.67;15.83;;;;;;;;;;4946697;29;20219;-86
2021/11/11 11:59:13;;;;;;;31.00;14.63;;;;;;;;;;4947116;29;20223;-85
2021/11/11 12:09:12;;;;;;;43.87;15.87;;;;;;;;;;4930201;29;20219;-85
2021/11/11 12:12:43;;;;;;;23.33;14.57;;;;;;;;;;4947439;29;20183;-86
2021/11/11 12:16:28;;;;;;;20.13;15.33;;;;;;;;;;4936092;29;20563;-85
2021/11/11 12:40:07;;;;;;;20.20;15.07;;;;;;;;;;4946371;29;20192;-86
2021/11/11 12:43:18;;;;;;;17.60;14.23;;;;;;;;;;4946788;29;20635;-86
2021/11/11 12:46:44;;;;;;;20.60;15.67;;;;;;;;;;4916852;29;20181;-85
2021/11/11 12:49:49;;;;;;;18.83;15.07;;;;;;;;;;4916670;29;20181;-85
2021/11/11 12:53:11;;;;;;;20.00;15.60;;;;;;;;;;4916604;29;20180;-85
2021/11/11 12:56:21;;;;;;;18.57;15.40;;;;;;;;;;4931634;29;20552;-85
2021/11/11 12:59:25;;;;;;;21.23;15.83;;;;;;;;;;4931356;29;20231;-85
2021/11/11 13:02:49;;;;;;;39.47;16.07;;;;;;;;;;4943174;29;20183;-85
2021/11/11 13:05:57;;;;;;;22.10;16.87;;;;;;;;;;4929748;29;20219;-85
2021/11/11 13:09:17;;;;;;;20.90;15.87;;;;;;;;;;4938564;29;20227;-85
2021/11/11 13:12:24;;;;;;;24.30;17.40;;;;;;;;;;4935309;29;20528;-85
2021/11/11 13:15:39;;;;;;;30.93;17.80;;;;;;;;;;4945481;29;20687;-85
2021/11/11 13:18:48;;;;;;;23.50;17.60;;;;;;;;;;4923962;29;20219;-85
2021/11/11 13:21:57;;;;;;;24.23;17.20;;;;;;;;;;4922056;29;20200;-85
2021/11/11 14:03:20;;;;;;;26.30;19.83;;;;;;;;;;4958509;29;20635;-85
2021/11/11 16:03:21;;;;;;;37.90;22.23;;;;;;;;;;4916951;29;20188;-85
2021/11/11 17:11:06;;;;;;;95.97;28.63;;;;;;;;;;4900109;29;20226;-90
2021/11/11 17:14:11;;;;;;;50.63;28.47;;;;;;;;;;4906966;29;20197;-89
2021/11/11 17:17:15;;;;;;;46.43;27.80;;;;;;;;;;4897481;29;20230;-89
2021/11/11 17:20:22;;;;;;;42.80;27.13;;;;;;;;;;4893217;29;20523;-89
2021/11/11 17:23:34;;;;;;;45.40;25.37;;;;;;;;;;4905580;29;20213;-90
2021/11/11 17:26:46;;;;;;;70.90;27.87;;;;;;;;;;4893635;29;20181;-90
2021/11/11 17:29:50;;;;;;;56.37;27.80;;;;;;;;;;4895859;29;20242;-89
2021/11/11 17:32:55;;;;;;;39.73;26.77;;;;;;;;;;4885710;29;20190;-89
2021/11/11 17:36:01;;;;;;;62.80;27.93;;;;;;;;;;4884411;29;20542;-89
2021/11/11 17:39:06;;;;;;;55.40;28.43;;;;;;;;;;4875701;29;20229;-89
2021/11/11 17:42:10;;;;;;;42.90;27.53;;;;;;;;;;4893085;29;20181;-90
2021/11/11 17:45:26;;;;;;;46.10;29.17;;;;;;;;;;4895635;29;20188;-90
2021/11/11 17:48:31;;;;;;;47.73;27.47;;;;;;;;;;4901495;23;20230;-73
2021/11/11 17:54:41;;;;;;;67.13;28.53;;;;;;;;;;4956078;28;20730;-73
2021/11/11 17:57:45;;;;;;;55.50;27.80;;;;;;;;;;4942409;29;20578;-73
2021/11/11 18:00:53;;;;;;;69.67;27.77;;;;;;;;;;4952715;28;20705;-73
2021/11/11 18:03:57;;;;;;;42.40;25.87;;;;;;;;;;4952555;29;20191;-73
2021/11/11 18:07:04;;;;;;;44.13;26.27;;;;;;;;;;4952388;29;20200;-73
2021/11/11 18:10:10;;;;;;;68.03;26.30;;;;;;;;;;4952657;29;20188;-73
2021/11/11 18:13:16;;;;;;;57.73;27.67;;;;;;;;;;4952318;29;20670;-73
2021/11/11 18:16:30;;;;;;;103.67;31.53;;;;;;;;;;4940627;29;20176;-73
2021/11/11 18:19:35;;;;;;;61.97;32.53;;;;;;;;;;4951763;29;20207;-73
2021/11/11 18:22:39;;;;;;;92.57;28.30;;;;;;;;;;4940732;29;20184;-73
2021/11/11 18:25:43;;;;;;;42.97;26.27;;;;;;;;;;4952194;29;20674;-73
2021/11/11 18:35:06;;;;;;;41.00;26.80;;;;;;;;;;4951846;29;20199;-73
2021/11/11 18:38:14;;;;;;;56.50;27.70;;;;;;;;;;4952006;29;20215;-73
2021/11/11 18:41:20;;;;;;;43.90;26.87;;;;;;;;;;4951958;29;20223;-73
2021/11/11 18:44:34;;;;;;;90.40;32.67;;;;;;;;;;4951636;29;20531;-73
2021/11/11 18:47:43;;;;;;;82.17;32.53;;;;;;;;;;4932725;29;20530;-73
2021/11/11 18:50:47;;;;;;;94.67;30.13;;;;;;;;;;4937929;29;20870;-73
2021/11/11 18:53:53;;;;;;;116.43;33.30;;;;;;;;;;4949580;28;20191;-73
2021/11/11 18:56:57;;;;;;;63.97;28.67;;;;;;;;;;4950538;29;20222;-73
2021/11/11 19:00:06;;;;;;;99.73;34.47;;;;;;;;;;4939937;29;20502;-73
2021/11/11 19:03:10;;;;;;;176.13;34.93;;;;;;;;;;4951529;29;20214;-73
2021/11/11 19:09:24;;;;;;;57.83;31.33;;;;;;;;;;4950721;29;20188;-73
2021/11/11 19:12:35;;;;;;;54.03;33.20;;;;;;;;;;4951471;28;20749;-73
2021/11/11 19:15:43;;;;;;;80.30;35.97;;;;;;;;;;4950341;29;20187;-73
2021/11/11 19:18:51;;;;;;;69.83;32.40;;;;;;;;;;4950663;29;20207;-73
2021/11/11 19:21:56;;;;;;;128.13;49.00;;;;;;;;;;4951100;29;20223;-73
2021/11/11 19:25:00;;;;;;;87.50;33.30;;;;;;;;;;4951254;29;20214;-72
2021/11/11 19:28:05;;;;;;;65.10;31.40;;;;;;;;;;4950395;29;20196;-72
2021/11/11 19:31:10;;;;;;;44.70;28.83;;;;;;;;;;4950887;29;20226;-73
2021/11/11 19:34:22;;;;;;;63.30;29.87;;;;;;;;;;4939287;29;20187;-73
2021/11/11 19:38:40;;;;;;;109.13;33.67;;;;;;;;;;4951260;29;20683;-73
2021/11/11 19:51:20;;;;;;;66.97;27.13;;;;;;;;;;4950802;29;20520;-73
2021/11/11 20:01:11;;;;;;;65.77;28.87;;;;;;;;;;4938684;29;20231;-73
2021/11/11 20:04:33;;;;;;;70.37;29.17;;;;;;;;;;4946453;28;20196;-73
2021/11/11 20:10:48;;;;;;;129.03;33.63;;;;;;;;;;4953289;29;20234;-73
2021/11/11 20:14:20;;;;;;;86.63;29.50;;;;;;;;;;4954533;29;20206;-73
2021/11/11 20:28:17;;;;;;;40.37;24.90;;;;;;;;;;4954476;29;20594;-73
2021/11/11 20:43:59;;;;;;;61.47;26.60;;;;;;;;;;4953721;29;20535;-73
2021/11/11 20:47:24;;;;;;;51.03;24.10;;;;;;;;;;4954147;29;20543;-73
2021/11/11 20:57:28;;;;;;;63.93;23.13;;;;;;;;;;4953526;29;20184;-73
2021/11/11 21:00:43;;;;;;;50.70;22.43;;;;;;;;;;4953490;29;20574;-73
2021/11/11 21:03:59;;;;;;;28.83;22.00;;;;;;;;;;4953683;29;20187;-73
2021/11/11 21:07:10;;;;;;;33.83;22.93;;;;;;;;;;4953435;29;20192;-73
2021/11/11 21:10:47;;;;;;;34.30;23.43;;;;;;;;;;4953677;29;20188;-73
2021/11/11 21:20:14;;;;;;;46.23;23.77;;;;;;;;;;4940054;29;20203;-73
2021/11/11 21:23:18;;;;;;;47.50;23.53;;;;;;;;;;4952816;29;20555;-72
2021/11/11 21:26:23;;;;;;;31.93;21.80;;;;;;;;;;4952949;29;20737;-73
2021/11/11 21:29:29;;;;;;;37.53;24.17;;;;;;;;;;4953303;29;20188;-73
2021/11/11 21:32:33;;;;;;;59.83;23.67;;;;;;;;;;4953017;29;20219;-73
2021/11/11 21:35:45;;;;;;;61.53;25.20;;;;;;;;;;4934034;29;20184;-72
2021/11/11 21:38:59;;;;;;;86.50;23.60;;;;;;;;;;4936458;29;20229;-73
2021/11/11 21:42:04;;;;;;;82.83;25.30;;;;;;;;;;4944173;29;20227;-73
2021/11/11 21:45:12;;;;;;;66.07;23.87;;;;;;;;;;4945196;29;20188;-73
2021/11/11 21:48:16;;;;;;;121.20;32.80;;;;;;;;;;4955379;29;20210;-73
2021/11/11 21:51:21;;;;;;;48.10;24.77;;;;;;;;;;4956237;29;20226;-73
2021/11/11 21:54:29;;;;;;;92.37;25.03;;;;;;;;;;4956565;29;20520;-73
2021/11/11 21:57:54;;;;;;;35.20;23.03;;;;;;;;;;4956239;29;20203;-73
2021/11/11 22:04:32;;;;;;;67.33;23.33;;;;;;;;;;4944602;29;20183;-73
2021/11/11 22:24:42;;;;;;;28.40;20.43;;;;;;;;;;4953236;29;20203;-73
2021/11/11 22:31:53;;;;;;;55.67;21.37;;;;;;;;;;4955373;29;20215;-73
2021/11/11 22:34:32;;;;;;;39.57;21.67;;;;;;;;;;4955984;29;20184;-73
2021/11/11 22:37:37;;;;;;;65.27;22.20;;;;;;;;;;4955451;29;20203;-73
2021/11/11 22:40:41;;;;;;;45.80;22.23;;;;;;;;;;4943942;29;20219;-73
2021/11/11 22:43:46;;;;;;;81.43;23.63;;;;;;;;;;4955952;29;20184;-73
2021/11/11 22:46:51;;;;;;;61.83;22.70;;;;;;;;;;4955457;29;20658;-73
2021/11/11 22:49:55;;;;;;;62.40;22.53;;;;;;;;;;4943529;29;20195;-73
2021/11/11 22:53:18;;;;;;;79.97;23.50;;;;;;;;;;4955501;29;20180;-73
2021/11/11 22:56:40;;;;;;;54.73;22.23;;;;;;;;;;4945334;29;20200;-73
2021/11/11 23:02:57;;;;;;;46.43;23.57;;;;;;;;;;4955634;29;20888;-73
2021/11/11 23:12:42;;;;;;;33.40;22.60;;;;;;;;;;4955187;29;20619;-72
2021/11/11 23:35:08;;;;;;;82.47;22.63;;;;;;;;;;4954722;29;20603;-73
2021/11/11 23:38:12;;;;;;;59.40;20.67;;;;;;;;;;4955117;29;20658;-73
2021/11/11 23:41:17;;;;;;;45.83;20.43;;;;;;;;;;4958041;29;20231;-73
2021/11/11 23:44:23;;;;;;;31.33;19.17;;;;;;;;;;4958396;29;20539;-72
2021/11/11 23:47:47;;;;;;;48.40;19.23;;;;;;;;;;4928099;29;20541;-73
2021/11/11 23:51:13;;;;;;;29.20;18.93;;;;;;;;;;4939862;29;20219;-73
